»·PEaware :: SWA4805 KSNA-KLAS

SWA4805 :: KSNA-KLAS

FLIGHT INFORMATION

Flight Status: Arrived
Operator:
Southwest Airlines
More flights by this operator :: More flights under this callsign
Pilot: Cody B. (17747)
Aircraft: BOEING 737-800
(B738)
More flights by this aircraft type
Origin: KSNA John Wayne-Orange Co
United States
Destination: KLAS McCarran Intl
United States
More flights between these airports :: More routes between these airports
Route: +FINZZ2 MISEN KEPEC6
File this flight plan on PilotEdge
Remarks:
Altitude:
(Current/Filed)
27,000ft
Speed:
(Current/Filed)
445kts
Departed: 05-Jul-18 01:07 PM
Arrived: 05-Jul-18 01:54 PM
Distance/Time
Traveled:
197nm/0:47
Distance/Time
To Go:
Arrived

Flight Plot

Page will automatically refresh every two minutes.

Flight plan parsing failed; only flown route is shown


Map Options




Map Legend


Flown Route
Filed Route
Departure Airport
Arrival Airport
Navaid (VOR, NDB)
Fix

Horizontal Profiles

Position Reports

Time Latitude Longitude Heading Altitude Ground
Speed
05-Jul-18 12:40 33.675717 -117.864669 117 64ft 0kts
05-Jul-18 12:41 33.675717 -117.864669 117 64ft 0kts
05-Jul-18 12:43 33.675717 -117.864669 117 64ft 0kts
05-Jul-18 12:44 33.675717 -117.864669 117 64ft 0kts
05-Jul-18 12:45 33.675717 -117.864669 117 64ft 0kts
05-Jul-18 12:46 33.675717 -117.864669 117 64ft 0kts
05-Jul-18 12:47 33.675717 -117.864669 117 64ft 0kts
05-Jul-18 12:48 33.675717 -117.864669 117 64ft 0kts
05-Jul-18 12:49 33.675717 -117.864669 117 64ft 0kts
05-Jul-18 12:50 33.675717 -117.864670 117 64ft 0kts
05-Jul-18 12:51 33.675717 -117.864670 117 64ft 0kts
05-Jul-18 12:52 33.675717 -117.864670 117 64ft 0kts
05-Jul-18 12:53 33.675717 -117.864670 117 64ft 0kts
05-Jul-18 12:54 33.675717 -117.864670 117 64ft 0kts
05-Jul-18 12:55 33.675717 -117.864670 117 64ft 0kts
05-Jul-18 12:56 33.675717 -117.864670 117 64ft 0kts
05-Jul-18 12:57 33.675737 -117.864715 122 64ft 2kts
05-Jul-18 12:58 33.675924 -117.865300 60 64ft 2kts
05-Jul-18 12:59 33.675797 -117.865426 27 64ft 0kts
05-Jul-18 13:00 33.675797 -117.865426 27 64ft 0kts
05-Jul-18 13:01 33.675797 -117.865426 27 64ft 0kts
05-Jul-18 13:02 33.676068 -117.865257 27 63ft 5kts
05-Jul-18 13:03 33.678039 -117.863998 27 63ft 11kts
05-Jul-18 13:04 33.680609 -117.863009 302 64ft 8kts
05-Jul-18 13:05 33.681152 -117.864225 299 64ft 0kts
05-Jul-18 13:06 33.681336 -117.864625 298 64ft 4kts
05-Jul-18 13:07 33.681374 -117.865220 207 64ft 0kts
05-Jul-18 13:08 33.654334 -117.882039 208 949ft 165kts
05-Jul-18 13:09 33.604945 -117.898934 185 1774ft 206kts
05-Jul-18 13:10 33.551366 -117.922230 223 2202ft 214kts
05-Jul-18 13:11 33.503111 -117.977474 235 3744ft 260kts
05-Jul-18 13:12 33.523630 -118.053868 311 6405ft 270kts
05-Jul-18 13:13 33.578629 -118.114831 344 8834ft 284kts
05-Jul-18 13:14 33.655080 -118.088789 23 10881ft 309kts
05-Jul-18 13:15 33.735815 -118.042700 24 12702ft 336kts
05-Jul-18 13:16 33.821245 -117.993290 25 14729ft 355kts
05-Jul-18 13:17 33.911147 -117.939633 34 16747ft 373kts
05-Jul-18 13:18 33.994636 -117.864511 38 18731ft 386kts
05-Jul-18 13:19 34.080555 -117.785708 38 20370ft 396kts
05-Jul-18 13:20 34.151262 -117.688558 52 21545ft 400kts
05-Jul-18 13:21 34.221646 -117.583120 52 22656ft 407kts
05-Jul-18 13:22 34.293357 -117.475774 52 23580ft 417kts
05-Jul-18 13:23 34.366698 -117.365792 52 24533ft 424kts
05-Jul-18 13:24 34.439816 -117.256018 52 25386ft 430kts
05-Jul-18 13:25 34.514856 -117.143043 52 26231ft 434kts
05-Jul-18 13:26 34.591737 -117.029279 51 26971ft 440kts
05-Jul-18 13:27 34.671027 -116.913526 51 27161ft 456kts
05-Jul-18 13:28 34.753306 -116.793023 51 27163ft 473kts
05-Jul-18 13:29 34.836928 -116.670158 51 27146ft 454kts
05-Jul-18 13:30 34.931095 -116.568340 38 27162ft 455kts
05-Jul-18 13:31 35.030103 -116.472704 38 27164ft 455kts
05-Jul-18 13:32 35.124971 -116.375190 45 27189ft 454kts
05-Jul-18 13:33 35.212206 -116.266185 46 27179ft 454kts
05-Jul-18 13:34 35.299368 -116.156772 45 25439ft 439kts
05-Jul-18 13:35 35.382266 -116.052296 45 24017ft 425kts
05-Jul-18 13:36 35.464180 -115.948701 46 21398ft 420kts
05-Jul-18 13:37 35.544187 -115.847239 46 18760ft 411kts
05-Jul-18 13:38 35.622861 -115.747141 46 15976ft 407kts
05-Jul-18 13:39 35.696001 -115.653880 47 13382ft 351kts
05-Jul-18 13:40 35.763254 -115.581134 18 13073ft 326kts
05-Jul-18 13:41 35.853381 -115.570736 1 13045ft 327kts
05-Jul-18 13:42 35.943958 -115.563116 19 13036ft 327kts
05-Jul-18 13:43 35.996722 -115.477166 69 12122ft 320kts
05-Jul-18 13:44 36.027395 -115.378712 84 11049ft 282kts
05-Jul-18 13:45 36.023749 -115.285467 98 9961ft 274kts
05-Jul-18 13:46 36.017181 -115.192680 98 8989ft 264kts
05-Jul-18 13:47 36.013997 -115.106125 94 8270ft 252kts
05-Jul-18 13:48 36.012753 -115.020453 93 6906ft 248kts
05-Jul-18 13:49 36.010445 -114.936309 77 5575ft 238kts
05-Jul-18 13:50 36.053972 -114.905585 321 5078ft 200kts
05-Jul-18 13:51 36.074689 -114.963488 271 4675ft 188kts
05-Jul-18 13:52 36.073238 -115.022393 272 3526ft 160kts
05-Jul-18 13:53 36.073191 -115.077700 273 2875ft 161kts
05-Jul-18 13:54 36.073606 -115.130918 271 2060ft 156kts
05-Jul-18 13:55 36.074607 -115.150437 296 2120ft 1kts
05-Jul-18 13:56 36.074662 -115.150575 295 2120ft 0kts
05-Jul-18 13:57 36.076165 -115.151792 359 2122ft 9kts
05-Jul-18 13:58 36.077547 -115.151115 0 2116ft 0kts
05-Jul-18 13:59 36.078724 -115.150444 91 2112ft 8kts
05-Jul-18 14:00 36.079077 -115.147433 341 2101ft 7kts
05-Jul-18 14:01 36.079901 -115.147159 57 2096ft 2kts
05-Jul-18 14:02 36.079922 -115.147119 57 2096ft 0kts
05-Jul-18 14:03 36.079922 -115.147119 57 2096ft 0kts
05-Jul-18 14:04 36.079923 -115.147118 57 2096ft 0kts
05-Jul-18 14:05 36.079923 -115.147118 57 2096ft 0kts
05-Jul-18 14:06 36.079923 -115.147118 57 2096ft 0kts

Navigation Log

Ident Type
Flight plan parsing failed, navigation log unavailable